sensor_id;sensor_type;location;lat;lon;timestamp;pressure;altitude;pressure_sealevel;temperature;humidity
44255;BME280;29933;47.226;15.734;2022-09-09T00:06:32;96178.69;;;13.31;100.00
44255;BME280;29933;47.226;15.734;2022-09-09T00:15:05;96182.09;;;13.39;100.00
44255;BME280;29933;47.226;15.734;2022-09-09T00:17:09;96177.84;;;13.38;100.00
44255;BME280;29933;47.226;15.734;2022-09-09T00:19:55;96179.06;;;13.33;100.00
44255;BME280;29933;47.226;15.734;2022-09-09T00:22:23;96181.44;;;13.27;100.00
44255;BME280;29933;47.226;15.734;2022-09-09T00:25:11;96181.81;;;13.29;100.00
44255;BME280;29933;47.226;15.734;2022-09-09T00:27:49;96191.56;;;13.31;100.00
44255;BME280;29933;47.226;15.734;2022-09-09T00:30:30;96199.72;;;13.31;100.00
44255;BME280;29933;47.226;15.734;2022-09-09T00:33:03;96203.31;;;13.24;100.00
44255;BME280;29933;47.226;15.734;2022-09-09T00:35:38;96204.91;;;13.21;100.00
44255;BME280;29933;47.226;15.734;2022-09-09T00:38:12;96209.25;;;13.15;100.00
44255;BME280;29933;47.226;15.734;2022-09-09T00:43:30;96212.38;;;13.13;100.00
44255;BME280;29933;47.226;15.734;2022-09-09T00:52:08;96205.75;;;13.15;100.00
44255;BME280;29933;47.226;15.734;2022-09-09T01:05:07;96209.69;;;13.10;100.00
44255;BME280;29933;47.226;15.734;2022-09-09T01:07:37;96196.97;;;13.00;100.00
44255;BME280;29933;47.226;15.734;2022-09-09T01:10:09;96204.34;;;13.03;100.00
44255;BME280;29933;47.226;15.734;2022-09-09T01:12:42;96196.53;;;13.05;100.00
44255;BME280;29933;47.226;15.734;2022-09-09T01:15:24;96196.81;;;13.14;100.00
44255;BME280;29933;47.226;15.734;2022-09-09T01:20:23;96201.03;;;13.19;100.00
44255;BME280;29933;47.226;15.734;2022-09-09T01:28:47;96197.53;;;13.18;100.00
44255;BME280;29933;47.226;15.734;2022-09-09T01:31:17;96197.22;;;13.12;100.00
44255;BME280;29933;47.226;15.734;2022-09-09T01:33:44;96198.78;;;13.10;100.00
44255;BME280;29933;47.226;15.734;2022-09-09T01:36:12;96198.78;;;13.10;100.00
44255;BME280;29933;47.226;15.734;2022-09-09T01:38:39;96206.63;;;13.08;100.00
44255;BME280;29933;47.226;15.734;2022-09-09T01:41:05;96199.25;;;13.05;100.00
44255;BME280;29933;47.226;15.734;2022-09-09T01:43:31;96205.13;;;13.03;100.00
44255;BME280;29933;47.226;15.734;2022-09-09T01:45:59;96200.06;;;13.02;100.00
44255;BME280;29933;47.226;15.734;2022-09-09T01:48:25;96201.28;;;12.97;100.00
44255;BME280;29933;47.226;15.734;2022-09-09T01:50:51;96202.88;;;12.94;100.00
44255;BME280;29933;47.226;15.734;2022-09-09T01:53:19;96210.63;;;12.96;100.00
44255;BME280;29933;47.226;15.734;2022-09-09T02:01:50;96206.41;;;12.91;100.00
44255;BME280;29933;47.226;15.734;2022-09-09T02:04:30;96204.06;;;12.93;100.00
44255;BME280;29933;47.226;15.734;2022-09-09T02:07:00;96198.22;;;12.91;100.00
44255;BME280;29933;47.226;15.734;2022-09-09T02:09:26;96204.09;;;12.90;100.00
44255;BME280;29933;47.226;15.734;2022-09-09T02:12:02;96202.22;;;12.83;100.00
44255;BME280;29933;47.226;15.734;2022-09-09T02:14:35;96190.22;;;12.77;100.00
44255;BME280;29933;47.226;15.734;2022-09-09T02:17:11;96199.94;;;12.78;100.00
44255;BME280;29933;47.226;15.734;2022-09-09T02:19:48;96203.06;;;12.76;100.00
44255;BME280;29933;47.226;15.734;2022-09-09T02:22:17;96201.53;;;12.75;100.00
44255;BME280;29933;47.226;15.734;2022-09-09T02:24:44;96202.25;;;12.79;100.00
44255;BME280;29933;47.226;15.734;2022-09-09T02:27:11;96197.25;;;12.74;100.00
44255;BME280;29933;47.226;15.734;2022-09-09T02:29:42;96198.41;;;12.73;100.00
44255;BME280;29933;47.226;15.734;2022-09-09T02:32:12;96198.84;;;12.72;100.00
44255;BME280;29933;47.226;15.734;2022-09-09T02:34:43;96203.16;;;12.69;100.00
44255;BME280;29933;47.226;15.734;2022-09-09T02:37:10;96201.59;;;12.68;100.00
44255;BME280;29933;47.226;15.734;2022-09-09T02:39:37;96199.25;;;12.70;100.00
44255;BME280;29933;47.226;15.734;2022-09-09T02:42:06;96203.97;;;12.62;100.00
44255;BME280;29933;47.226;15.734;2022-09-09T02:44:33;96203.31;;;12.51;100.00
44255;BME280;29933;47.226;15.734;2022-09-09T02:50:17;96208.41;;;12.49;100.00
44255;BME280;29933;47.226;15.734;2022-09-09T02:57:59;96226.44;;;12.28;100.00
44255;BME280;29933;47.226;15.734;2022-09-09T03:00:27;96233.84;;;12.31;100.00
44255;BME280;29933;47.226;15.734;2022-09-09T03:02:53;96229.56;;;12.30;100.00
44255;BME280;29933;47.226;15.734;2022-09-09T03:05:20;96233.09;;;12.24;100.00
44255;BME280;29933;47.226;15.734;2022-09-09T03:07:47;96238.19;;;12.18;100.00
44255;BME280;29933;47.226;15.734;2022-09-09T03:10:13;96239.41;;;12.13;100.00
44255;BME280;29933;47.226;15.734;2022-09-09T03:12:38;96244.84;;;12.13;100.00
44255;BME280;29933;47.226;15.734;2022-09-09T03:15:05;96240.97;;;12.11;100.00
44255;BME280;29933;47.226;15.734;2022-09-09T03:17:31;96246.44;;;12.07;100.00
44255;BME280;29933;47.226;15.734;2022-09-09T03:19:57;96237.88;;;12.05;100.00
44255;BME280;29933;47.226;15.734;2022-09-09T03:22:24;96235.16;;;12.05;100.00
44255;BME280;29933;47.226;15.734;2022-09-09T03:24:51;96233.22;;;12.06;100.00
44255;BME280;29933;47.226;15.734;2022-09-09T03:27:17;96230.13;;;12.04;100.00
44255;BME280;29933;47.226;15.734;2022-09-09T03:29:45;96230.13;;;12.04;100.00
44255;BME280;29933;47.226;15.734;2022-09-09T03:32:12;96234.00;;;12.03;100.00
44255;BME280;29933;47.226;15.734;2022-09-09T03:34:38;96220.03;;;12.04;100.00
44255;BME280;29933;47.226;15.734;2022-09-09T03:37:06;96209.94;;;12.01;100.00
44255;BME280;29933;47.226;15.734;2022-09-09T03:39:32;96208.38;;;12.00;100.00
44255;BME280;29933;47.226;15.734;2022-09-09T03:41:58;96209.94;;;12.01;100.00
44255;BME280;29933;47.226;15.734;2022-09-09T03:44:23;96202.91;;;12.04;100.00
44255;BME280;29933;47.226;15.734;2022-09-09T03:46:49;96206.81;;;12.03;100.00
44255;BME280;29933;47.226;15.734;2022-09-09T03:49:15;96209.53;;;12.03;100.00
44255;BME280;29933;47.226;15.734;2022-09-09T03:51:42;96206.47;;;11.97;100.00
44255;BME280;29933;47.226;15.734;2022-09-09T03:54:08;96207.63;;;11.92;100.00
44255;BME280;29933;47.226;15.734;2022-09-09T03:56:36;96215.00;;;11.95;100.00
44255;BME280;29933;47.226;15.734;2022-09-09T03:59:02;96226.66;;;11.99;100.00
44255;BME280;29933;47.226;15.734;2022-09-09T04:01:28;96214.59;;;12.01;100.00
44255;BME280;29933;47.226;15.734;2022-09-09T04:03:54;96223.19;;;11.99;100.00
44255;BME280;29933;47.226;15.734;2022-09-09T04:06:24;96223.16;;;11.95;100.00
44255;BME280;29933;47.226;15.734;2022-09-09T04:08:50;96214.66;;;11.90;100.00
44255;BME280;29933;47.226;15.734;2022-09-09T04:11:17;96215.81;;;11.89;100.00
44255;BME280;29933;47.226;15.734;2022-09-09T04:13:44;96213.88;;;11.89;100.00
44255;BME280;29933;47.226;15.734;2022-09-09T04:16:11;96221.63;;;11.91;100.00
44255;BME280;29933;47.226;15.734;2022-09-09T04:18:38;96221.22;;;11.92;100.00
44255;BME280;29933;47.226;15.734;2022-09-09T04:21:04;96234.84;;;11.89;100.00
44255;BME280;29933;47.226;15.734;2022-09-09T04:23:32;96227.13;;;11.80;100.00
44255;BME280;29933;47.226;15.734;2022-09-09T04:25:59;96232.22;;;11.78;100.00
44255;BME280;29933;47.226;15.734;2022-09-09T04:28:31;96236.88;;;11.77;100.00
44255;BME280;29933;47.226;15.734;2022-09-09T04:31:03;96233.38;;;11.77;100.00
44255;BME280;29933;47.226;15.734;2022-09-09T04:33:32;96229.53;;;11.74;100.00
44255;BME280;29933;47.226;15.734;2022-09-09T04:35:58;96226.00;;;11.77;100.00
44255;BME280;29933;47.226;15.734;2022-09-09T04:38:26;96227.94;;;11.80;100.00
44255;BME280;29933;47.226;15.734;2022-09-09T04:41:12;96222.09;;;11.82;100.00
44255;BME280;29933;47.226;15.734;2022-09-09T04:43:40;96216.63;;;11.82;100.00
44255;BME280;29933;47.226;15.734;2022-09-09T04:46:08;96224.81;;;11.82;100.00
44255;BME280;29933;47.226;15.734;2022-09-09T04:48:40;96224.00;;;11.85;100.00
44255;BME280;29933;47.226;15.734;2022-09-09T04:51:10;96223.63;;;11.87;100.00
44255;BME280;29933;47.226;15.734;2022-09-09T04:54:14;96222.41;;;11.91;100.00
44255;BME280;29933;47.226;15.734;2022-09-09T04:56:41;96215.41;;;11.90;100.00
44255;BME280;29933;47.226;15.734;2022-09-09T05:01:57;96216.50;;;12.04;100.00
44255;BME280;29933;47.226;15.734;2022-09-09T05:04:23;96215.31;;;12.08;100.00
44255;BME280;29933;47.226;15.734;2022-09-09T05:07:09;96210.63;;;12.12;100.00
44255;BME280;29933;47.226;15.734;2022-09-09T05:09:34;96212.56;;;12.15;100.00
44255;BME280;29933;47.226;15.734;2022-09-09T05:12:00;96209.84;;;12.15;100.00
44255;BME280;29933;47.226;15.734;2022-09-09T05:16:53;96217.13;;;12.26;100.00
44255;BME280;29933;47.226;15.734;2022-09-09T05:19:22;96224.09;;;12.30;100.00
44255;BME280;29933;47.226;15.734;2022-09-09T05:21:47;96218.22;;;12.36;100.00
44255;BME280;29933;47.226;15.734;2022-09-09T05:24:18;96223.66;;;12.39;100.00
44255;BME280;29933;47.226;15.734;2022-09-09T05:27:07;96222.84;;;12.39;100.00
44255;BME280;29933;47.226;15.734;2022-09-09T05:29:52;96214.69;;;12.39;100.00
44255;BME280;29933;47.226;15.734;2022-09-09T05:32:38;96214.31;;;12.40;100.00
44255;BME280;29933;47.226;15.734;2022-09-09T05:35:07;96228.28;;;12.42;100.00
44255;BME280;29933;47.226;15.734;2022-09-09T05:37:35;96213.09;;;12.45;100.00
44255;BME280;29933;47.226;15.734;2022-09-09T05:40:07;96218.47;;;12.52;100.00
44255;BME280;29933;47.226;15.734;2022-09-09T05:45:06;96227.78;;;12.55;100.00
44255;BME280;29933;47.226;15.734;2022-09-09T05:48:11;96223.13;;;12.55;100.00
44255;BME280;29933;47.226;15.734;2022-09-09T05:51:01;96228.91;;;12.61;100.00
44255;BME280;29933;47.226;15.734;2022-09-09T05:54:27;96224.97;;;12.66;100.00
44255;BME280;29933;47.226;15.734;2022-09-09T05:57:22;96221.03;;;12.70;100.00
44255;BME280;29933;47.226;15.734;2022-09-09T05:59:48;96222.53;;;12.75;100.00
44255;BME280;29933;47.226;15.734;2022-09-09T06:03:00;96228.66;;;12.86;100.00
44255;BME280;29933;47.226;15.734;2022-09-09T06:05:34;96230.50;;;12.96;100.00
44255;BME280;29933;47.226;15.734;2022-09-09T06:08:00;96224.16;;;13.07;100.00
44255;BME280;29933;47.226;15.734;2022-09-09T06:10:26;96225.25;;;13.13;100.00
44255;BME280;29933;47.226;15.734;2022-09-09T06:13:12;96220.03;;;13.26;100.00
44255;BME280;29933;47.226;15.734;2022-09-09T06:16:19;96219.91;;;13.37;100.00
44255;BME280;29933;47.226;15.734;2022-09-09T06:19:27;96228.41;;;13.46;100.00
44255;BME280;29933;47.226;15.734;2022-09-09T06:21:55;96231.41;;;13.55;100.00
44255;BME280;29933;47.226;15.734;2022-09-09T06:24:21;96245.66;;;13.70;100.00
44255;BME280;29933;47.226;15.734;2022-09-09T06:27:10;96241.09;;;13.87;100.00
44255;BME280;29933;47.226;15.734;2022-09-09T06:30:11;96256.13;;;14.03;100.00
44255;BME280;29933;47.226;15.734;2022-09-09T06:32:40;96242.72;;;14.12;100.00
44255;BME280;29933;47.226;15.734;2022-09-09T06:35:09;96245.72;;;14.21;100.00
44255;BME280;29933;47.226;15.734;2022-09-09T06:37:46;96234.66;;;14.29;100.00
44255;BME280;29933;47.226;15.734;2022-09-09T06:40:17;96225.16;;;14.37;100.00
44255;BME280;29933;47.226;15.734;2022-09-09T06:43:26;96229.63;;;14.51;100.00
44255;BME280;29933;47.226;15.734;2022-09-09T06:46:36;96225.59;;;14.59;100.00
44255;BME280;29933;47.226;15.734;2022-09-09T06:49:01;96225.53;;;14.63;100.00
44255;BME280;29933;47.226;15.734;2022-09-09T06:51:30;96218.81;;;14.67;100.00
44255;BME280;29933;47.226;15.734;2022-09-09T06:53:58;96221.16;;;14.69;100.00
44255;BME280;29933;47.226;15.734;2022-09-09T06:56:30;96228.63;;;14.65;100.00
44255;BME280;29933;47.226;15.734;2022-09-09T06:58:57;96226.72;;;14.62;100.00
44255;BME280;29933;47.226;15.734;2022-09-09T07:01:33;96223.34;;;14.54;100.00
44255;BME280;29933;47.226;15.734;2022-09-09T07:04:00;96231.16;;;14.52;100.00
44255;BME280;29933;47.226;15.734;2022-09-09T07:06:27;96218.16;;;14.60;100.00
44255;BME280;29933;47.226;15.734;2022-09-09T07:08:57;96224.22;;;14.71;100.00
44255;BME280;29933;47.226;15.734;2022-09-09T07:11:25;96214.59;;;14.86;100.00
44255;BME280;29933;47.226;15.734;2022-09-09T07:13:52;96211.03;;;15.10;100.00
44255;BME280;29933;47.226;15.734;2022-09-09T07:16:20;96208.22;;;15.33;100.00
44255;BME280;29933;47.226;15.734;2022-09-09T07:18:46;96205.13;;;15.51;100.00
44255;BME280;29933;47.226;15.734;2022-09-09T07:21:13;96204.31;;;15.71;100.00
44255;BME280;29933;47.226;15.734;2022-09-09T07:23:40;96209.34;;;15.93;100.00
44255;BME280;29933;47.226;15.734;2022-09-09T07:26:11;96207.72;;;15.95;100.00
44255;BME280;29933;47.226;15.734;2022-09-09T07:28:37;96209.00;;;15.91;100.00
44255;BME280;29933;47.226;15.734;2022-09-09T07:31:04;96214.81;;;15.93;100.00
44255;BME280;29933;47.226;15.734;2022-09-09T07:33:32;96222.09;;;15.99;100.00
44255;BME280;29933;47.226;15.734;2022-09-09T07:36:04;96224.94;;;16.12;100.00
44255;BME280;29933;47.226;15.734;2022-09-09T07:38:31;96218.78;;;16.25;100.00
44255;BME280;29933;47.226;15.734;2022-09-09T07:41:05;96218.09;;;16.37;100.00
44255;BME280;29933;47.226;15.734;2022-09-09T07:43:31;96223.66;;;16.50;100.00
44255;BME280;29933;47.226;15.734;2022-09-09T07:45:59;96224.56;;;16.60;100.00
44255;BME280;29933;47.226;15.734;2022-09-09T07:48:27;96220.81;;;16.70;100.00
44255;BME280;29933;47.226;15.734;2022-09-09T07:51:03;96214.38;;;16.77;100.00
44255;BME280;29933;47.226;15.734;2022-09-09T07:53:29;96214.38;;;16.77;100.00
44255;BME280;29933;47.226;15.734;2022-09-09T07:56:02;96222.06;;;16.82;100.00
44255;BME280;29933;47.226;15.734;2022-09-09T07:58:28;96226.59;;;16.89;100.00
44255;BME280;29933;47.226;15.734;2022-09-09T08:00:54;96222.72;;;16.86;100.00
44255;BME280;29933;47.226;15.734;2022-09-09T08:03:20;96216.84;;;16.88;100.00
44255;BME280;29933;47.226;15.734;2022-09-09T08:05:47;96225.75;;;16.92;100.00
44255;BME280;29933;47.226;15.734;2022-09-09T08:08:13;96226.78;;;16.98;100.00
44255;BME280;29933;47.226;15.734;2022-09-09T08:10:38;96234.47;;;17.03;100.00
44255;BME280;29933;47.226;15.734;2022-09-09T08:13:06;96236.16;;;17.13;100.00
44255;BME280;29933;47.226;15.734;2022-09-09T08:15:31;96225.09;;;17.17;100.00
44255;BME280;29933;47.226;15.734;2022-09-09T08:17:57;96239.59;;;17.18;100.00
44255;BME280;29933;47.226;15.734;2022-09-09T08:20:23;96236.50;;;17.15;100.00
44255;BME280;29933;47.226;15.734;2022-09-09T08:22:49;96245.00;;;17.21;100.00
44255;BME280;29933;47.226;15.734;2022-09-09T08:25:15;96240.38;;;17.31;100.00
44255;BME280;29933;47.226;15.734;2022-09-09T08:27:41;96241.19;;;17.44;100.00
44255;BME280;29933;47.226;15.734;2022-09-09T08:30:07;96245.28;;;17.53;100.00
44255;BME280;29933;47.226;15.734;2022-09-09T08:32:33;96245.41;;;17.62;100.00
44255;BME280;29933;47.226;15.734;2022-09-09T08:35:00;96247.94;;;17.69;100.00
44255;BME280;29933;47.226;15.734;2022-09-09T08:37:26;96257.19;;;17.75;100.00
44255;BME280;29933;47.226;15.734;2022-09-09T08:39:52;96257.41;;;17.81;100.00
44255;BME280;29933;47.226;15.734;2022-09-09T08:42:38;96243.81;;;17.90;100.00
44255;BME280;29933;47.226;15.734;2022-09-09T08:45:23;96242.53;;;17.95;100.00
44255;BME280;29933;47.226;15.734;2022-09-09T08:50:29;96250.78;;;18.08;100.00
44255;BME280;29933;47.226;15.734;2022-09-09T08:58:20;96254.72;;;18.20;100.00
44255;BME280;29933;47.226;15.734;2022-09-09T09:11:54;96254.41;;;18.18;100.00
44255;BME280;29933;47.226;15.734;2022-09-09T09:14:23;96252.97;;;18.13;100.00
44255;BME280;29933;47.226;15.734;2022-09-09T09:19:20;96247.56;;;18.09;100.00
44255;BME280;29933;47.226;15.734;2022-09-09T09:22:10;96247.81;;;18.15;100.00
44255;BME280;29933;47.226;15.734;2022-09-09T09:24:42;96250.88;;;18.17;100.00
44255;BME280;29933;47.226;15.734;2022-09-09T09:27:35;96244.50;;;18.20;100.00
44255;BME280;29933;47.226;15.734;2022-09-09T09:30:18;96239.66;;;18.24;100.00
44255;BME280;29933;47.226;15.734;2022-09-09T09:35:19;96246.25;;;18.27;100.00
44255;BME280;29933;47.226;15.734;2022-09-09T09:37:44;96246.94;;;18.31;100.00
44255;BME280;29933;47.226;15.734;2022-09-09T09:40:18;96252.72;;;18.33;100.00
44255;BME280;29933;47.226;15.734;2022-09-09T09:42:53;96244.41;;;18.24;100.00
44255;BME280;29933;47.226;15.734;2022-09-09T09:45:32;96242.41;;;18.11;100.00
44255;BME280;29933;47.226;15.734;2022-09-09T09:48:05;96243.84;;;18.03;100.00
44255;BME280;29933;47.226;15.734;2022-09-09T09:50:32;96243.63;;;17.98;100.00
44255;BME280;29933;47.226;15.734;2022-09-09T09:53:00;96247.91;;;17.99;100.00
44255;BME280;29933;47.226;15.734;2022-09-09T09:55:28;96243.53;;;18.01;100.00
44255;BME280;29933;47.226;15.734;2022-09-09T09:58:04;96242.53;;;18.08;100.00
44255;BME280;29933;47.226;15.734;2022-09-09T10:00:30;96236.38;;;18.17;100.00
44255;BME280;29933;47.226;15.734;2022-09-09T10:02:59;96236.03;;;18.15;100.00
44255;BME280;29933;47.226;15.734;2022-09-09T10:05:27;96236.91;;;18.24;100.00
44255;BME280;29933;47.226;15.734;2022-09-09T10:08:14;96239.75;;;18.47;100.00
44255;BME280;29933;47.226;15.734;2022-09-09T10:16:08;96229.47;;;18.73;100.00
44255;BME280;29933;47.226;15.734;2022-09-09T10:18:53;96231.38;;;18.98;100.00
44255;BME280;29933;47.226;15.734;2022-09-09T10:26:53;96232.50;;;19.67;100.00
44255;BME280;29933;47.226;15.734;2022-09-09T10:32:36;96228.28;;;20.16;100.00
44255;BME280;29933;47.226;15.734;2022-09-09T10:35:33;96224.56;;;20.51;100.00
44255;BME280;29933;47.226;15.734;2022-09-09T10:38:15;96224.56;;;20.69;100.00
44255;BME280;29933;47.226;15.734;2022-09-09T10:49:03;96214.06;;;21.24;100.00
44255;BME280;29933;47.226;15.734;2022-09-09T10:57:14;96192.09;;;21.57;94.09
44255;BME280;29933;47.226;15.734;2022-09-09T11:00:02;96184.66;;;21.73;94.69
44255;BME280;29933;47.226;15.734;2022-09-09T11:02:33;96179.53;;;21.90;92.60
44255;BME280;29933;47.226;15.734;2022-09-09T11:05:20;96187.34;;;21.91;93.35
44255;BME280;29933;47.226;15.734;2022-09-09T11:08:01;96185.25;;;21.77;91.37
44255;BME280;29933;47.226;15.734;2022-09-09T11:10:56;96188.66;;;21.53;93.59
44255;BME280;29933;47.226;15.734;2022-09-09T11:17:01;96189.78;;;21.28;95.91
44255;BME280;29933;47.226;15.734;2022-09-09T11:19:42;96181.81;;;21.30;98.90
44255;BME280;29933;47.226;15.734;2022-09-09T11:22:47;96188.09;;;21.30;96.55
44255;BME280;29933;47.226;15.734;2022-09-09T11:25:39;96182.44;;;21.34;98.92
44255;BME280;29933;47.226;15.734;2022-09-09T11:31:16;96182.38;;;21.43;98.30
44255;BME280;29933;47.226;15.734;2022-09-09T11:40:17;96184.56;;;21.39;97.48
44255;BME280;29933;47.226;15.734;2022-09-09T11:45:55;96171.38;;;21.34;96.77
44255;BME280;29933;47.226;15.734;2022-09-09T11:49:21;96168.47;;;21.38;98.14
44255;BME280;29933;47.226;15.734;2022-09-09T11:51:51;96158.50;;;21.31;98.25
44255;BME280;29933;47.226;15.734;2022-09-09T11:54:31;96157.13;;;21.26;97.81
44255;BME280;29933;47.226;15.734;2022-09-09T11:56:57;96154.25;;;21.11;99.57
44255;BME280;29933;47.226;15.734;2022-09-09T12:06:52;96118.97;;;20.97;97.45
44255;BME280;29933;47.226;15.734;2022-09-09T12:09:27;96117.00;;;20.97;98.37
44255;BME280;29933;47.226;15.734;2022-09-09T12:12:25;96122.50;;;20.97;100.00
44255;BME280;29933;47.226;15.734;2022-09-09T12:28:24;96099.81;;;20.93;97.10
44255;BME280;29933;47.226;15.734;2022-09-09T12:31:02;96093.38;;;20.87;99.37
44255;BME280;29933;47.226;15.734;2022-09-09T12:33:39;96095.81;;;20.94;100.00
44255;BME280;29933;47.226;15.734;2022-09-09T12:36:21;96083.56;;;20.95;99.39
44255;BME280;29933;47.226;15.734;2022-09-09T12:38:47;96083.88;;;20.97;99.83
44255;BME280;29933;47.226;15.734;2022-09-09T12:41:27;96086.59;;;21.07;100.00
44255;BME280;29933;47.226;15.734;2022-09-09T12:44:04;96083.81;;;21.16;100.00
44255;BME280;29933;47.226;15.734;2022-09-09T12:46:37;96088.88;;;21.17;100.00
44255;BME280;29933;47.226;15.734;2022-09-09T12:49:05;96083.63;;;21.19;98.34
44255;BME280;29933;47.226;15.734;2022-09-09T12:51:49;96085.53;;;21.13;97.49
44255;BME280;29933;47.226;15.734;2022-09-09T12:54:15;96080.75;;;21.04;100.00
44255;BME280;29933;47.226;15.734;2022-09-09T12:57:04;96084.94;;;21.00;100.00
44255;BME280;29933;47.226;15.734;2022-09-09T12:59:45;96081.53;;;20.96;100.00
44255;BME280;29933;47.226;15.734;2022-09-09T13:02:36;96078.66;;;20.90;100.00
44255;BME280;29933;47.226;15.734;2022-09-09T13:05:28;96078.97;;;20.92;100.00
44255;BME280;29933;47.226;15.734;2022-09-09T13:08:05;96079.41;;;20.91;100.00
44255;BME280;29933;47.226;15.734;2022-09-09T13:10:35;96074.38;;;20.89;100.00
44255;BME280;29933;47.226;15.734;2022-09-09T13:13:11;96064.53;;;20.88;100.00
44255;BME280;29933;47.226;15.734;2022-09-09T13:15:38;96069.31;;;20.87;100.00
44255;BME280;29933;47.226;15.734;2022-09-09T13:18:11;96064.69;;;20.84;100.00
44255;BME280;29933;47.226;15.734;2022-09-09T13:20:39;96060.28;;;20.78;100.00
44255;BME280;29933;47.226;15.734;2022-09-09T13:23:12;96063.19;;;20.65;100.00
44255;BME280;29933;47.226;15.734;2022-09-09T13:25:39;96069.63;;;20.62;100.00
44255;BME280;29933;47.226;15.734;2022-09-09T13:28:23;96065.03;;;20.49;100.00
44255;BME280;29933;47.226;15.734;2022-09-09T13:31:18;96058.44;;;20.47;100.00
44255;BME280;29933;47.226;15.734;2022-09-09T13:33:44;96052.31;;;20.43;100.00
44255;BME280;29933;47.226;15.734;2022-09-09T13:36:13;96051.06;;;20.34;100.00
44255;BME280;29933;47.226;15.734;2022-09-09T13:41:24;96045.44;;;20.29;100.00
44255;BME280;29933;47.226;15.734;2022-09-09T13:43:52;96043.72;;;20.22;100.00
44255;BME280;29933;47.226;15.734;2022-09-09T13:46:36;96040.03;;;20.16;100.00
44255;BME280;29933;47.226;15.734;2022-09-09T13:51:46;96040.81;;;20.16;100.00
44255;BME280;29933;47.226;15.734;2022-09-09T13:54:19;96042.50;;;20.23;100.00
44255;BME280;29933;47.226;15.734;2022-09-09T13:56:46;96033.19;;;20.30;100.00
44255;BME280;29933;47.226;15.734;2022-09-09T13:59:16;96035.31;;;20.35;100.00
44255;BME280;29933;47.226;15.734;2022-09-09T14:01:43;96026.56;;;20.36;100.00
44255;BME280;29933;47.226;15.734;2022-09-09T14:04:11;96025.63;;;20.39;100.00
44255;BME280;29933;47.226;15.734;2022-09-09T14:06:38;96025.81;;;20.36;100.00
44255;BME280;29933;47.226;15.734;2022-09-09T14:09:11;96031.50;;;20.32;100.00
44255;BME280;29933;47.226;15.734;2022-09-09T14:11:38;96028.41;;;20.30;100.00
44255;BME280;29933;47.226;15.734;2022-09-09T14:14:04;96025.50;;;20.25;100.00
44255;BME280;29933;47.226;15.734;2022-09-09T14:16:30;96030.09;;;20.18;100.00
44255;BME280;29933;47.226;15.734;2022-09-09T14:18:56;96019.38;;;20.11;100.00
44255;BME280;29933;47.226;15.734;2022-09-09T14:21:23;96019.69;;;20.04;100.00
44255;BME280;29933;47.226;15.734;2022-09-09T14:23:50;96023.50;;;19.97;100.00
44255;BME280;29933;47.226;15.734;2022-09-09T14:26:20;96025.34;;;19.91;100.00
44255;BME280;29933;47.226;15.734;2022-09-09T14:28:47;96027.47;;;19.87;100.00
44255;BME280;29933;47.226;15.734;2022-09-09T14:31:13;96033.69;;;19.78;100.00
44255;BME280;29933;47.226;15.734;2022-09-09T14:33:40;96030.19;;;19.78;100.00
44255;BME280;29933;47.226;15.734;2022-09-09T14:36:07;96040.25;;;19.71;100.00
44255;BME280;29933;47.226;15.734;2022-09-09T14:38:37;96040.88;;;19.66;100.00
44255;BME280;29933;47.226;15.734;2022-09-09T14:41:10;96043.75;;;19.63;100.00
44255;BME280;29933;47.226;15.734;2022-09-09T14:43:38;96042.06;;;19.56;100.00
44255;BME280;29933;47.226;15.734;2022-09-09T14:46:13;96038.38;;;19.50;100.00
44255;BME280;29933;47.226;15.734;2022-09-09T14:48:39;96046.31;;;19.48;100.00
44255;BME280;29933;47.226;15.734;2022-09-09T14:51:16;96050.63;;;19.49;100.00
44255;BME280;29933;47.226;15.734;2022-09-09T14:53:43;96045.84;;;19.40;100.00
44255;BME280;29933;47.226;15.734;2022-09-09T14:56:16;96040.75;;;19.38;100.00
44255;BME280;29933;47.226;15.734;2022-09-09T14:58:42;96042.00;;;19.37;100.00
44255;BME280;29933;47.226;15.734;2022-09-09T15:01:32;96049.47;;;19.28;100.00
44255;BME280;29933;47.226;15.734;2022-09-09T15:04:04;96057.22;;;19.20;100.00
44255;BME280;29933;47.226;15.734;2022-09-09T15:06:34;96048.66;;;19.18;100.00
44255;BME280;29933;47.226;15.734;2022-09-09T15:09:05;96056.91;;;19.18;100.00
44255;BME280;29933;47.226;15.734;2022-09-09T15:11:35;96059.94;;;19.10;100.00
44255;BME280;29933;47.226;15.734;2022-09-09T15:14:08;96064.19;;;19.02;100.00
44255;BME280;29933;47.226;15.734;2022-09-09T15:16:39;96071.47;;;18.96;100.00
44255;BME280;29933;47.226;15.734;2022-09-09T15:19:08;96072.03;;;18.91;100.00
44255;BME280;29933;47.226;15.734;2022-09-09T15:21:36;96058.22;;;18.82;100.00
44255;BME280;29933;47.226;15.734;2022-09-09T15:24:04;96066.41;;;18.72;100.00
44255;BME280;29933;47.226;15.734;2022-09-09T15:26:30;96066.78;;;18.61;100.00
44255;BME280;29933;47.226;15.734;2022-09-09T15:28:58;96066.03;;;18.61;100.00
44255;BME280;29933;47.226;15.734;2022-09-09T15:31:35;96064.16;;;18.58;100.00
44255;BME280;29933;47.226;15.734;2022-09-09T15:34:04;96066.72;;;18.52;100.00
44255;BME280;29933;47.226;15.734;2022-09-09T15:36:44;96069.91;;;18.51;100.00
44255;BME280;29933;47.226;15.734;2022-09-09T15:39:35;96070.38;;;18.49;100.00
44255;BME280;29933;47.226;15.734;2022-09-09T15:42:03;96077.06;;;18.48;100.00
44255;BME280;29933;47.226;15.734;2022-09-09T15:44:29;96078.09;;;18.41;100.00